Time;durP1;ratioP1;P1;durP2;ratioP2;P2;SDS_P1;SDS_P2;PMS_P1;PMS_P2;Temp;Humidity;BMP_temperature;BMP_pressure;BME280_temperature;BME280_humidity;BME280_pressure;Samples;Min_cycle;Max_cycle;Signal;HPM_P1;HPM_P2
2021/11/25 00:00:13;;;;;;;31.33;27.30;;;;;;;;;;4979809;28;24479;-61
2021/11/25 00:02:39;;;;;;;30.00;26.30;;;;;;;;;;4979971;28;24919;-62
2021/11/25 00:05:05;;;;;;;29.70;25.80;;;;;;;;;;4981411;28;24800;-62
2021/11/25 00:07:30;;;;;;;30.15;25.00;;;;;;;;;;4981357;28;24448;-62
2021/11/25 00:09:55;;;;;;;30.65;26.05;;;;;;;;;;4983225;28;24421;-62
2021/11/25 00:12:20;;;;;;;32.40;27.03;;;;;;;;;;4979826;28;24397;-62
2021/11/25 00:14:45;;;;;;;30.93;26.17;;;;;;;;;;4972690;28;24870;-62
2021/11/25 00:17:11;;;;;;;32.80;27.83;;;;;;;;;;4982679;28;24881;-62
2021/11/25 00:19:36;;;;;;;32.13;27.70;;;;;;;;;;4981567;28;24409;-62
2021/11/25 00:22:01;;;;;;;30.20;26.83;;;;;;;;;;4983771;28;24477;-62
2021/11/25 00:24:26;;;;;;;34.77;29.90;;;;;;;;;;4978847;28;24421;-61
2021/11/25 00:26:51;;;;;;;29.53;25.87;;;;;;;;;;4979082;28;24405;-61
2021/11/25 00:29:16;;;;;;;31.02;27.02;;;;;;;;;;4983078;28;24432;-62
2021/11/25 00:31:41;;;;;;;29.73;26.53;;;;;;;;;;4981577;28;24397;-62
2021/11/25 00:34:07;;;;;;;31.77;28.35;;;;;;;;;;4981497;28;24432;-61
2021/11/25 00:36:32;;;;;;;32.08;28.77;;;;;;;;;;4978769;28;24498;-62
2021/11/25 00:38:57;;;;;;;31.53;26.90;;;;;;;;;;4981927;28;24413;-62
2021/11/25 00:41:22;;;;;;;29.35;26.17;;;;;;;;;;4986558;28;24922;-62
2021/11/25 00:43:47;;;;;;;31.20;27.83;;;;;;;;;;4984777;28;24800;-62
2021/11/25 00:46:13;;;;;;;29.42;26.23;;;;;;;;;;4984149;28;24428;-62
2021/11/25 00:48:38;;;;;;;30.07;26.40;;;;;;;;;;4981856;28;24429;-62
2021/11/25 00:51:03;;;;;;;28.17;25.17;;;;;;;;;;4984658;28;24957;-62
2021/11/25 00:53:28;;;;;;;29.60;26.47;;;;;;;;;;4982728;28;24939;-61
2021/11/25 00:55:53;;;;;;;29.63;26.58;;;;;;;;;;4985375;28;24983;-61
2021/11/25 00:58:20;;;;;;;30.83;27.73;;;;;;;;;;4986177;28;24416;-61
2021/11/25 01:00:45;;;;;;;31.35;26.52;;;;;;;;;;4982084;28;24942;-61
2021/11/25 01:03:11;;;;;;;30.97;26.87;;;;;;;;;;4982607;28;24424;-61
2021/11/25 01:05:36;;;;;;;29.15;26.23;;;;;;;;;;4983145;28;24509;-62
2021/11/25 01:08:01;;;;;;;28.70;25.80;;;;;;;;;;4985985;28;24417;-61
2021/11/25 01:10:26;;;;;;;27.80;24.80;;;;;;;;;;4984322;28;24424;-62
2021/11/25 01:12:52;;;;;;;29.10;26.10;;;;;;;;;;4985175;28;24532;-61
2021/11/25 01:15:18;;;;;;;28.92;25.92;;;;;;;;;;4980600;28;24894;-62
2021/11/25 01:17:44;;;;;;;28.35;25.45;;;;;;;;;;4985105;28;25055;-61
2021/11/25 01:20:11;;;;;;;28.00;25.30;;;;;;;;;;4985778;28;24537;-61
2021/11/25 01:22:36;;;;;;;27.00;24.40;;;;;;;;;;4985454;28;24428;-61
2021/11/25 01:25:01;;;;;;;28.60;25.60;;;;;;;;;;4981398;28;24417;-61
2021/11/25 01:27:27;;;;;;;26.30;23.60;;;;;;;;;;4981608;28;24903;-61
2021/11/25 01:29:52;;;;;;;27.42;24.63;;;;;;;;;;4981789;28;24424;-61
2021/11/25 01:32:17;;;;;;;26.13;23.43;;;;;;;;;;4983948;28;24420;-61
2021/11/25 01:34:43;;;;;;;24.80;22.40;;;;;;;;;;4983570;28;24491;-61
2021/11/25 01:37:09;;;;;;;25.58;23.08;;;;;;;;;;4985828;28;24397;-61
2021/11/25 01:39:34;;;;;;;27.80;25.10;;;;;;;;;;4980662;28;24519;-61
2021/11/25 01:41:59;;;;;;;23.90;21.60;;;;;;;;;;4981936;28;24564;-61
2021/11/25 01:44:25;;;;;;;24.17;21.77;;;;;;;;;;4983572;28;24397;-61
2021/11/25 01:46:50;;;;;;;25.47;22.87;;;;;;;;;;4985093;28;24537;-62
2021/11/25 01:49:15;;;;;;;26.00;23.60;;;;;;;;;;4984286;28;24459;-62
2021/11/25 01:51:40;;;;;;;24.95;22.52;;;;;;;;;;4981089;28;24994;-62
2021/11/25 01:54:05;;;;;;;24.50;22.20;;;;;;;;;;4983131;28;24487;-62
2021/11/25 01:56:30;;;;;;;26.93;24.33;;;;;;;;;;4983066;28;24416;-62
2021/11/25 01:58:56;;;;;;;27.43;24.73;;;;;;;;;;4983710;28;24421;-62
2021/11/25 02:01:23;;;;;;;25.38;22.88;;;;;;;;;;4984446;28;24428;-62
2021/11/25 02:03:49;;;;;;;25.30;22.90;;;;;;;;;;4981022;28;24549;-61
2021/11/25 02:06:14;;;;;;;25.30;22.90;;;;;;;;;;4980873;28;24421;-62
2021/11/25 02:08:40;;;;;;;24.97;22.57;;;;;;;;;;4983218;28;24545;-62
2021/11/25 02:11:05;;;;;;;24.42;22.13;;;;;;;;;;4984692;28;25030;-62
2021/11/25 02:13:31;;;;;;;27.17;24.67;;;;;;;;;;4982322;28;25049;-62
2021/11/25 02:15:56;;;;;;;25.98;23.55;;;;;;;;;;4984714;28;24420;-62
2021/11/25 02:18:22;;;;;;;26.90;24.10;;;;;;;;;;4981062;28;24498;-61
2021/11/25 02:20:49;;;;;;;25.73;23.20;;;;;;;;;;4980674;28;24467;-62
2021/11/25 02:23:15;;;;;;;26.05;23.55;;;;;;;;;;4984370;28;25002;-62
2021/11/25 02:25:40;;;;;;;26.30;23.80;;;;;;;;;;4982127;28;24428;-61
2021/11/25 02:28:06;;;;;;;26.90;24.30;;;;;;;;;;4981125;28;25037;-61
2021/11/25 02:30:31;;;;;;;24.90;22.60;;;;;;;;;;4979660;28;24402;-61
2021/11/25 02:32:57;;;;;;;25.20;22.70;;;;;;;;;;4982344;28;24467;-61
2021/11/25 02:35:23;;;;;;;25.63;23.23;;;;;;;;;;4984278;28;24417;-62
2021/11/25 02:37:49;;;;;;;27.05;24.45;;;;;;;;;;4982803;28;24471;-62
2021/11/25 02:40:16;;;;;;;24.90;22.70;;;;;;;;;;4983936;28;24796;-61
2021/11/25 02:42:41;;;;;;;26.10;23.60;;;;;;;;;;4979965;28;24445;-61
2021/11/25 02:45:06;;;;;;;26.43;23.83;;;;;;;;;;4980571;28;25006;-61
2021/11/25 02:47:31;;;;;;;25.57;23.07;;;;;;;;;;4982303;28;24401;-61
2021/11/25 02:49:56;;;;;;;24.20;21.90;;;;;;;;;;4984280;28;24503;-61
2021/11/25 02:52:25;;;;;;;24.80;22.50;;;;;;;;;;4981423;28;24436;-61
2021/11/25 02:54:50;;;;;;;25.17;22.88;;;;;;;;;;4979595;28;24440;-61
2021/11/25 02:57:15;;;;;;;25.17;22.88;;;;;;;;;;4980356;28;24421;-62
2021/11/25 02:59:41;;;;;;;24.73;22.25;;;;;;;;;;4981911;28;24444;-62
2021/11/25 03:02:06;;;;;;;24.73;22.33;;;;;;;;;;4983899;28;24482;-62
2021/11/25 03:04:31;;;;;;;24.45;22.00;;;;;;;;;;4980567;28;24420;-61
2021/11/25 03:06:56;;;;;;;24.95;22.55;;;;;;;;;;4983696;28;24437;-61
2021/11/25 03:09:21;;;;;;;25.40;22.90;;;;;;;;;;4980306;28;24990;-61
2021/11/25 03:11:46;;;;;;;24.52;22.02;;;;;;;;;;4979701;28;24499;-61
2021/11/25 03:14:11;;;;;;;24.40;22.00;;;;;;;;;;4984335;28;24397;-61
2021/11/25 03:16:37;;;;;;;24.37;21.97;;;;;;;;;;4981809;28;24416;-61
2021/11/25 03:19:02;;;;;;;25.10;22.63;;;;;;;;;;4983867;28;24890;-61
2021/11/25 03:21:28;;;;;;;24.88;22.48;;;;;;;;;;4980189;28;24471;-61
2021/11/25 03:23:54;;;;;;;23.13;20.92;;;;;;;;;;4981773;28;24488;-61
2021/11/25 03:26:21;;;;;;;23.15;20.75;;;;;;;;;;4983607;28;24453;-61
2021/11/25 03:28:46;;;;;;;24.50;22.15;;;;;;;;;;4981902;28;24955;-61
2021/11/25 03:31:13;;;;;;;24.50;22.00;;;;;;;;;;4983158;28;24408;-61
2021/11/25 03:33:38;;;;;;;26.38;23.90;;;;;;;;;;4982230;28;24509;-62
2021/11/25 03:36:04;;;;;;;25.50;22.90;;;;;;;;;;4977765;28;24548;-62
2021/11/25 03:38:30;;;;;;;25.90;23.30;;;;;;;;;;4979774;28;24440;-62
2021/11/25 03:40:55;;;;;;;26.87;24.10;;;;;;;;;;4981785;28;24492;-62
2021/11/25 03:43:20;;;;;;;27.30;24.60;;;;;;;;;;4983502;28;24859;-62
2021/11/25 03:45:46;;;;;;;26.27;23.57;;;;;;;;;;4981356;28;24427;-62
2021/11/25 03:48:11;;;;;;;28.70;25.80;;;;;;;;;;4961982;28;24460;-62
2021/11/25 03:50:36;;;;;;;28.20;25.23;;;;;;;;;;4979892;28;24397;-61
2021/11/25 03:53:01;;;;;;;27.50;24.50;;;;;;;;;;4983178;28;24516;-62
2021/11/25 03:55:27;;;;;;;27.73;24.47;;;;;;;;;;4983812;28;24421;-62
2021/11/25 03:57:53;;;;;;;28.88;25.98;;;;;;;;;;4981007;28;24811;-61
2021/11/25 04:00:19;;;;;;;28.90;25.90;;;;;;;;;;4983526;28;24441;-62
2021/11/25 04:02:45;;;;;;;27.42;24.60;;;;;;;;;;4979360;28;25238;-61
2021/11/25 04:05:13;;;;;;;27.83;24.98;;;;;;;;;;4979390;28;24432;-61
2021/11/25 04:07:38;;;;;;;29.10;26.00;;;;;;;;;;4981174;28;24775;-61
2021/11/25 04:10:04;;;;;;;29.43;25.93;;;;;;;;;;4983391;28;24468;-62
2021/11/25 04:12:29;;;;;;;28.00;25.10;;;;;;;;;;4982351;28;24442;-62
2021/11/25 04:14:54;;;;;;;29.27;25.80;;;;;;;;;;4986950;28;24416;-62
2021/11/25 04:17:21;;;;;;;29.13;26.10;;;;;;;;;;4982570;28;24508;-61
2021/11/25 04:19:50;;;;;;;30.75;25.13;;;;;;;;;;4983713;28;24428;-61
2021/11/25 04:22:18;;;;;;;31.38;28.08;;;;;;;;;;4987379;28;24400;-62
2021/11/25 04:24:44;;;;;;;33.08;29.67;;;;;;;;;;4984870;28;24448;-62
2021/11/25 04:27:09;;;;;;;29.50;26.10;;;;;;;;;;4984215;28;24455;-62
2021/11/25 04:29:37;;;;;;;29.75;26.55;;;;;;;;;;4982647;28;24879;-61
2021/11/25 04:37:30;;;;;;;26.75;23.77;;;;;;;;;;4981724;28;24427;-61
2021/11/25 04:39:55;;;;;;;26.42;23.63;;;;;;;;;;4985228;28;25039;-61
2021/11/25 04:42:20;;;;;;;28.55;23.80;;;;;;;;;;4983108;28;25073;-62
2021/11/25 04:44:46;;;;;;;30.33;23.67;;;;;;;;;;4985043;28;24400;-62
2021/11/25 04:47:11;;;;;;;27.40;23.50;;;;;;;;;;4985469;28;24835;-61
2021/11/25 04:49:36;;;;;;;26.57;22.47;;;;;;;;;;4984270;28;24532;-62
2021/11/25 04:52:02;;;;;;;26.30;22.20;;;;;;;;;;4986024;28;24891;-61
2021/11/25 04:54:27;;;;;;;27.90;22.98;;;;;;;;;;4984488;28;24467;-61
2021/11/25 04:56:52;;;;;;;30.33;24.00;;;;;;;;;;4982333;28;24444;-61
2021/11/25 04:59:17;;;;;;;27.88;23.70;;;;;;;;;;4982999;28;24807;-61
2021/11/25 05:01:42;;;;;;;26.98;22.25;;;;;;;;;;4986443;28;25018;-62
2021/11/25 05:04:07;;;;;;;27.15;23.20;;;;;;;;;;4986254;28;24500;-62
2021/11/25 05:06:35;;;;;;;27.17;22.00;;;;;;;;;;4983791;28;24420;-63
2021/11/25 05:09:01;;;;;;;27.35;23.00;;;;;;;;;;4982398;28;24479;-63
2021/11/25 05:11:26;;;;;;;27.17;22.40;;;;;;;;;;4984058;28;24807;-63
2021/11/25 05:13:51;;;;;;;27.95;22.33;;;;;;;;;;4985900;28;24432;-63
2021/11/25 05:16:16;;;;;;;27.05;22.70;;;;;;;;;;4985638;28;24816;-62
2021/11/25 05:18:41;;;;;;;29.23;22.83;;;;;;;;;;4981953;28;24500;-62
2021/11/25 05:21:06;;;;;;;25.93;22.70;;;;;;;;;;4981899;28;24956;-62
2021/11/25 05:23:31;;;;;;;25.70;22.17;;;;;;;;;;4983720;28;24441;-62
2021/11/25 05:25:57;;;;;;;25.27;21.83;;;;;;;;;;4984307;28;24413;-62
2021/11/25 05:28:22;;;;;;;27.63;21.73;;;;;;;;;;4985089;28;24433;-62
2021/11/25 05:30:47;;;;;;;24.77;21.43;;;;;;;;;;4981679;28;24827;-63
2021/11/25 05:33:14;;;;;;;26.70;22.07;;;;;;;;;;4979954;28;24978;-62
2021/11/25 05:35:41;;;;;;;26.50;21.95;;;;;;;;;;4986181;28;24500;-62
2021/11/25 05:38:06;;;;;;;30.48;25.50;;;;;;;;;;4985640;28;24488;-63
2021/11/25 05:40:31;;;;;;;26.27;23.47;;;;;;;;;;4984235;28;24500;-63
2021/11/25 05:42:57;;;;;;;26.03;23.43;;;;;;;;;;4979594;28;24440;-64
2021/11/25 05:45:22;;;;;;;26.47;23.30;;;;;;;;;;4981790;28;25023;-66
2021/11/25 05:47:47;;;;;;;25.70;23.00;;;;;;;;;;4985475;28;24428;-61
2021/11/25 05:50:17;;;;;;;27.67;23.60;;;;;;;;;;4985447;28;24393;-61
2021/11/25 05:52:42;;;;;;;26.98;23.55;;;;;;;;;;4983659;28;24694;-61
2021/11/25 05:55:08;;;;;;;25.87;23.17;;;;;;;;;;4981490;28;24677;-64
2021/11/25 05:57:33;;;;;;;26.23;22.60;;;;;;;;;;4980041;28;24958;-64
2021/11/25 05:59:58;;;;;;;27.97;24.47;;;;;;;;;;4984879;28;24437;-64
2021/11/25 06:02:23;;;;;;;26.75;23.85;;;;;;;;;;4985308;28;24764;-64
2021/11/25 06:04:49;;;;;;;25.97;22.93;;;;;;;;;;4983646;28;24394;-64
2021/11/25 06:07:14;;;;;;;27.80;23.52;;;;;;;;;;4980745;28;24420;-64
2021/11/25 06:09:40;;;;;;;27.03;24.00;;;;;;;;;;4979594;28;24424;-64
2021/11/25 06:12:05;;;;;;;26.67;23.77;;;;;;;;;;4984784;28;24416;-63
2021/11/25 06:14:31;;;;;;;30.00;25.00;;;;;;;;;;4983370;28;25215;-64
2021/11/25 06:16:56;;;;;;;29.10;24.70;;;;;;;;;;4984515;28;24761;-64
2021/11/25 06:19:21;;;;;;;29.30;24.40;;;;;;;;;;4981224;28;24549;-62
2021/11/25 06:21:47;;;;;;;28.25;24.25;;;;;;;;;;4981354;28;24512;-61
2021/11/25 06:24:12;;;;;;;26.92;23.10;;;;;;;;;;4984448;28;24424;-62
2021/11/25 06:26:41;;;;;;;26.02;22.70;;;;;;;;;;4983157;28;24539;-62
2021/11/25 06:29:06;;;;;;;27.58;23.70;;;;;;;;;;4983616;28;24453;-64
2021/11/25 06:31:31;;;;;;;26.70;23.77;;;;;;;;;;4980599;28;24524;-64
2021/11/25 06:33:56;;;;;;;27.70;23.80;;;;;;;;;;4984753;28;24409;-62
2021/11/25 06:36:21;;;;;;;27.73;24.45;;;;;;;;;;4998330;28;24449;-63
2021/11/25 06:38:46;;;;;;;28.17;24.63;;;;;;;;;;4980711;28;24432;-63
2021/11/25 06:41:12;;;;;;;28.83;24.80;;;;;;;;;;4979735;28;24963;-64
2021/11/25 06:43:37;;;;;;;27.37;24.27;;;;;;;;;;4980540;28;24417;-64
2021/11/25 06:46:02;;;;;;;29.50;24.10;;;;;;;;;;4981168;28;24813;-63
2021/11/25 06:48:27;;;;;;;31.07;25.83;;;;;;;;;;4978900;28;24516;-64
2021/11/25 06:50:52;;;;;;;30.70;25.67;;;;;;;;;;4982005;28;24956;-65
2021/11/25 06:53:17;;;;;;;28.92;25.83;;;;;;;;;;4982171;28;24418;-63
2021/11/25 06:55:43;;;;;;;28.03;25.00;;;;;;;;;;4982788;28;25145;-64
2021/11/25 06:58:08;;;;;;;27.90;24.90;;;;;;;;;;4992988;28;24436;-63
2021/11/25 07:00:33;;;;;;;29.33;26.23;;;;;;;;;;4980081;28;24440;-63
2021/11/25 07:02:59;;;;;;;28.47;25.30;;;;;;;;;;4975507;28;24539;-63
2021/11/25 07:05:25;;;;;;;28.37;25.37;;;;;;;;;;4986987;28;24783;-64
2021/11/25 07:07:50;;;;;;;31.60;27.90;;;;;;;;;;4976656;28;25029;-63
2021/11/25 07:10:16;;;;;;;32.80;28.50;;;;;;;;;;4975184;28;24413;-63
2021/11/25 07:12:42;;;;;;;29.63;26.43;;;;;;;;;;4979264;28;24999;-64
2021/11/25 07:15:08;;;;;;;29.75;26.40;;;;;;;;;;4980008;28;25146;-64
2021/11/25 07:17:33;;;;;;;33.40;28.00;;;;;;;;;;4977982;28;24483;-63
2021/11/25 07:19:59;;;;;;;30.43;26.67;;;;;;;;;;4981843;28;25009;-64
2021/11/25 07:22:26;;;;;;;29.93;26.73;;;;;;;;;;4983703;28;24405;-64
2021/11/25 07:24:51;;;;;;;28.53;25.53;;;;;;;;;;4981281;28;24532;-64
2021/11/25 07:27:16;;;;;;;28.83;25.73;;;;;;;;;;4979453;28;25003;-64
2021/11/25 07:29:41;;;;;;;29.42;26.23;;;;;;;;;;4979186;28;24433;-64
2021/11/25 07:32:06;;;;;;;31.35;28.00;;;;;;;;;;4990533;28;24433;-64
2021/11/25 07:34:32;;;;;;;31.20;27.33;;;;;;;;;;4988794;28;24836;-63
2021/11/25 07:36:58;;;;;;;29.60;25.63;;;;;;;;;;4982427;28;24416;-63
2021/11/25 07:39:23;;;;;;;29.67;26.42;;;;;;;;;;4982454;28;24428;-65
2021/11/25 07:41:49;;;;;;;29.65;26.55;;;;;;;;;;4981873;28;26143;-63
2021/11/25 07:44:14;;;;;;;30.57;26.70;;;;;;;;;;4982803;28;24413;-64
2021/11/25 07:46:39;;;;;;;32.22;28.27;;;;;;;;;;4982167;28;25301;-63
2021/11/25 07:49:05;;;;;;;30.80;27.53;;;;;;;;;;4983998;28;24428;-63
2021/11/25 07:51:30;;;;;;;31.60;28.13;;;;;;;;;;4984309;28;24545;-63
2021/11/25 07:53:56;;;;;;;29.52;26.45;;;;;;;;;;4990597;28;25500;-64
2021/11/25 07:56:21;;;;;;;30.37;26.70;;;;;;;;;;4987087;28;24439;-63
2021/11/25 07:58:46;;;;;;;28.35;25.20;;;;;;;;;;4990048;28;24424;-63
2021/11/25 08:01:11;;;;;;;29.10;26.00;;;;;;;;;;4980445;28;24432;-63
2021/11/25 08:03:36;;;;;;;29.98;26.77;;;;;;;;;;4980914;28;24421;-64
2021/11/25 08:06:01;;;;;;;31.00;26.80;;;;;;;;;;4989485;28;24973;-63
2021/11/25 08:08:27;;;;;;;30.03;26.47;;;;;;;;;;4987216;28;24510;-64
2021/11/25 08:10:52;;;;;;;28.10;25.10;;;;;;;;;;4982810;28;24417;-63
2021/11/25 08:13:17;;;;;;;28.67;25.58;;;;;;;;;;4978770;28;24994;-63
2021/11/25 08:15:42;;;;;;;31.53;28.13;;;;;;;;;;4982455;28;24491;-63
2021/11/25 08:18:07;;;;;;;30.70;27.20;;;;;;;;;;4988281;28;24426;-63
2021/11/25 08:20:32;;;;;;;30.53;27.23;;;;;;;;;;4992012;28;24424;-63
2021/11/25 08:22:58;;;;;;;31.02;27.77;;;;;;;;;;4981784;28;24844;-63
2021/11/25 08:25:24;;;;;;;29.43;26.43;;;;;;;;;;4988434;28;24417;-63
2021/11/25 08:27:52;;;;;;;31.73;28.20;;;;;;;;;;4993384;28;25116;-63
2021/11/25 08:30:17;;;;;;;31.17;27.87;;;;;;;;;;5005803;28;24408;-63
2021/11/25 08:32:43;;;;;;;30.17;26.60;;;;;;;;;;4993682;28;24419;-63
2021/11/25 08:35:09;;;;;;;31.73;28.33;;;;;;;;;;4990667;28;24412;-63
2021/11/25 08:37:34;;;;;;;28.73;25.63;;;;;;;;;;4988603;28;24957;-63
2021/11/25 08:40:00;;;;;;;28.40;25.30;;;;;;;;;;4983303;28;24413;-63
2021/11/25 08:42:25;;;;;;;31.63;27.60;;;;;;;;;;4984673;28;24521;-64
2021/11/25 08:44:51;;;;;;;32.05;27.90;;;;;;;;;;4986233;28;24419;-64
2021/11/25 08:47:16;;;;;;;30.47;27.20;;;;;;;;;;4986669;28;24416;-63
2021/11/25 08:49:41;;;;;;;30.45;27.10;;;;;;;;;;4984617;28;25002;-64
2021/11/25 08:52:06;;;;;;;30.83;27.47;;;;;;;;;;4986560;28;24536;-64
2021/11/25 08:54:31;;;;;;;29.70;26.40;;;;;;;;;;4994257;28;25108;-64
2021/11/25 08:56:57;;;;;;;32.83;27.98;;;;;;;;;;5000605;28;24412;-64
2021/11/25 08:59:22;;;;;;;33.05;29.17;;;;;;;;;;4981884;28;24445;-68
2021/11/25 09:01:48;;;;;;;30.50;27.30;;;;;;;;;;4984788;28;24505;-69
2021/11/25 09:04:13;;;;;;;29.30;26.20;;;;;;;;;;4984086;28;24408;-69
2021/11/25 09:06:38;;;;;;;30.27;26.17;;;;;;;;;;4980611;28;24519;-68
2021/11/25 09:09:04;;;;;;;30.13;26.77;;;;;;;;;;4983434;28;24528;-67
2021/11/25 09:11:29;;;;;;;30.10;26.93;;;;;;;;;;4989993;28;24475;-68
2021/11/25 09:13:54;;;;;;;31.67;27.60;;;;;;;;;;4989055;28;24432;-67
2021/11/25 09:16:20;;;;;;;28.60;25.60;;;;;;;;;;4987091;28;24575;-62
2021/11/25 09:18:45;;;;;;;32.13;27.03;;;;;;;;;;4981025;28;25006;-62
2021/11/25 09:21:10;;;;;;;29.40;26.30;;;;;;;;;;4983903;28;24424;-63
2021/11/25 09:23:35;;;;;;;28.10;25.10;;;;;;;;;;4985469;28;25243;-62
2021/11/25 09:26:01;;;;;;;28.03;25.07;;;;;;;;;;4991115;28;25186;-62
2021/11/25 09:28:27;;;;;;;30.35;27.15;;;;;;;;;;4985785;28;24527;-63
2021/11/25 09:30:53;;;;;;;28.63;25.63;;;;;;;;;;4999355;28;25009;-63
2021/11/25 09:33:19;;;;;;;28.33;25.25;;;;;;;;;;4987473;28;24442;-63
2021/11/25 09:35:45;;;;;;;31.05;27.75;;;;;;;;;;4988378;28;24415;-63
2021/11/25 09:38:11;;;;;;;29.15;26.15;;;;;;;;;;4994654;28;24467;-63
2021/11/25 09:40:36;;;;;;;30.37;27.10;;;;;;;;;;4992762;28;25118;-63
2021/11/25 09:43:04;;;;;;;27.55;24.45;;;;;;;;;;4989343;28;24974;-63
2021/11/25 09:45:30;;;;;;;33.40;29.80;;;;;;;;;;4977114;28;24444;-63
2021/11/25 09:47:57;;;;;;;31.13;27.83;;;;;;;;;;4983784;28;24515;-63
2021/11/25 09:50:24;;;;;;;30.90;27.60;;;;;;;;;;4985474;28;24823;-63
2021/11/25 09:52:51;;;;;;;30.85;27.55;;;;;;;;;;4982321;28;24419;-63
2021/11/25 09:55:16;;;;;;;31.27;27.77;;;;;;;;;;4981000;28;24570;-63
2021/11/25 09:57:41;;;;;;;33.77;30.07;;;;;;;;;;4981559;28;24702;-63
2021/11/25 10:00:07;;;;;;;32.60;29.10;;;;;;;;;;4984936;28;24436;-63
2021/11/25 10:02:32;;;;;;;33.08;29.58;;;;;;;;;;4978822;28;24436;-62
2021/11/25 10:04:57;;;;;;;30.55;27.25;;;;;;;;;;4983381;28;24410;-62
2021/11/25 10:07:30;;;;;;;32.10;28.60;;;;;;;;;;4981638;28;24401;-64
2021/11/25 10:09:55;;;;;;;32.83;29.33;;;;;;;;;;4982309;28;25214;-63
2021/11/25 10:12:32;;;;;;;31.08;27.85;;;;;;;;;;4983290;28;24427;-63
2021/11/25 10:14:58;;;;;;;30.63;27.43;;;;;;;;;;4985162;28;24815;-63
2021/11/25 10:17:42;;;;;;;29.83;26.63;;;;;;;;;;4984897;28;24408;-63
2021/11/25 10:20:08;;;;;;;31.55;28.30;;;;;;;;;;4982946;28;24397;-63
2021/11/25 10:22:33;;;;;;;29.23;26.30;;;;;;;;;;4981266;28;25358;-63
2021/11/25 10:25:01;;;;;;;28.65;25.63;;;;;;;;;;4984888;28;24397;-63
2021/11/25 10:27:27;;;;;;;28.70;25.70;;;;;;;;;;4965392;28;24478;-63
2021/11/25 10:30:12;;;;;;;30.63;27.42;;;;;;;;;;4963672;28;24508;-63
2021/11/25 10:32:37;;;;;;;27.48;24.58;;;;;;;;;;4966419;28;24422;-62
2021/11/25 10:35:28;;;;;;;28.17;25.33;;;;;;;;;;4979414;28;24416;-64
2021/11/25 10:38:19;;;;;;;28.15;25.15;;;;;;;;;;4976665;28;24460;-64
2021/11/25 10:40:38;;;;;;;27.75;24.85;;;;;;;;;;4963282;28;24452;-64
2021/11/25 10:43:20;;;;;;;27.10;24.30;;;;;;;;;;4973053;28;24413;-64
2021/11/25 10:45:47;;;;;;;26.98;24.23;;;;;;;;;;4980040;28;24524;-64
2021/11/25 10:48:13;;;;;;;26.73;24.08;;;;;;;;;;4980803;28;24413;-64
2021/11/25 10:50:38;;;;;;;26.17;23.48;;;;;;;;;;4984659;28;24396;-64
2021/11/25 10:53:08;;;;;;;26.27;23.67;;;;;;;;;;4984315;28;24803;-64
2021/11/25 10:55:33;;;;;;;24.58;22.15;;;;;;;;;;4982522;28;24425;-64
2021/11/25 10:58:01;;;;;;;25.10;22.60;;;;;;;;;;4980041;28;24582;-64
2021/11/25 11:00:37;;;;;;;24.60;22.10;;;;;;;;;;4975156;28;25018;-62
2021/11/25 11:03:04;;;;;;;23.40;21.20;;;;;;;;;;4982408;28;24496;-62
2021/11/25 11:05:30;;;;;;;23.50;21.30;;;;;;;;;;4981760;28;24428;-62
2021/11/25 11:08:03;;;;;;;22.10;20.10;;;;;;;;;;4980339;28;24448;-62
2021/11/25 11:10:29;;;;;;;23.60;21.30;;;;;;;;;;4981042;28;25260;-62
2021/11/25 11:13:11;;;;;;;21.80;19.70;;;;;;;;;;4981226;28;24519;-62
2021/11/25 11:15:48;;;;;;;21.55;19.55;;;;;;;;;;4981513;28;24406;-62
2021/11/25 11:20:44;;;;;;;21.33;19.33;;;;;;;;;;4981965;28;24943;-62
2021/11/25 11:23:09;;;;;;;20.02;18.13;;;;;;;;;;4982006;28;24729;-62
2021/11/25 11:25:35;;;;;;;23.43;20.93;;;;;;;;;;4981513;28;24432;-62
2021/11/25 11:28:02;;;;;;;22.50;20.30;;;;;;;;;;4984967;28;24474;-62
2021/11/25 11:30:28;;;;;;;21.95;19.80;;;;;;;;;;4979161;28;24492;-63
2021/11/25 11:32:54;;;;;;;21.90;19.90;;;;;;;;;;4982436;28;24505;-62
2021/11/25 11:35:22;;;;;;;21.10;19.10;;;;;;;;;;4983401;28;24496;-62
2021/11/25 11:37:49;;;;;;;20.90;18.70;;;;;;;;;;4981860;28;24474;-62
2021/11/25 11:40:14;;;;;;;25.10;22.60;;;;;;;;;;4983887;28;24412;-62
2021/11/25 11:42:39;;;;;;;23.67;21.27;;;;;;;;;;4979665;28;24487;-63
2021/11/25 11:45:05;;;;;;;23.17;20.97;;;;;;;;;;4983023;28;24421;-63
2021/11/25 11:47:31;;;;;;;22.13;19.95;;;;;;;;;;4983649;28;24425;-62
2021/11/25 11:50:01;;;;;;;20.87;18.87;;;;;;;;;;4980699;28;24442;-63
2021/11/25 11:52:26;;;;;;;22.67;20.48;;;;;;;;;;4979562;28;24421;-62
2021/11/25 11:54:52;;;;;;;22.57;20.37;;;;;;;;;;4983831;28;24776;-61
2021/11/25 11:57:35;;;;;;;20.75;18.75;;;;;;;;;;4981459;28;24448;-62
2021/11/25 12:00:07;;;;;;;20.80;18.80;;;;;;;;;;5000711;28;24462;-64
2021/11/25 12:02:46;;;;;;;21.45;19.35;;;;;;;;;;4995111;28;25049;-63
2021/11/25 12:05:31;;;;;;;19.45;17.55;;;;;;;;;;4984841;28;24448;-64
2021/11/25 12:08:16;;;;;;;22.02;19.73;;;;;;;;;;4984801;28;24417;-64
2021/11/25 12:11:00;;;;;;;20.55;18.55;;;;;;;;;;4981186;28;24421;-64
2021/11/25 12:13:26;;;;;;;36.03;29.25;;;;;;;;;;4980786;28;24445;-64
2021/11/25 12:16:11;;;;;;;43.67;33.78;;;;;;;;;;4981888;28;24475;-63
2021/11/25 12:18:37;;;;;;;28.58;24.15;;;;;;;;;;4981270;28;24470;-63
2021/11/25 12:21:02;;;;;;;43.30;33.30;;;;;;;;;;4983235;28;24535;-64
2021/11/25 12:23:38;;;;;;;33.08;27.23;;;;;;;;;;4981033;28;24783;-64
2021/11/25 12:26:05;;;;;;;21.50;19.40;;;;;;;;;;4981699;28;24397;-63
2021/11/25 12:28:35;;;;;;;20.75;18.65;;;;;;;;;;4983204;28;24415;-64
2021/11/25 12:33:40;;;;;;;25.65;23.25;;;;;;;;;;4982887;28;24551;-63
2021/11/25 12:36:06;;;;;;;26.53;23.93;;;;;;;;;;4989940;28;24771;-64
2021/11/25 12:38:35;;;;;;;27.83;24.93;;;;;;;;;;4987597;28;25004;-64
2021/11/25 12:41:02;;;;;;;33.63;29.77;;;;;;;;;;4981166;28;24784;-63
2021/11/25 12:43:33;;;;;;;29.08;26.08;;;;;;;;;;4979571;28;24440;-62
2021/11/25 12:46:04;;;;;;;31.05;27.85;;;;;;;;;;4990446;28;24420;-62
2021/11/25 12:48:35;;;;;;;26.60;24.00;;;;;;;;;;4981787;28;24979;-61
2021/11/25 12:51:08;;;;;;;20.30;18.33;;;;;;;;;;4981883;28;24423;-62
2021/11/25 12:53:56;;;;;;;23.20;21.00;;;;;;;;;;4976642;28;24421;-61
2021/11/25 12:56:23;;;;;;;21.00;19.00;;;;;;;;;;4973650;28;24441;-62
2021/11/25 12:58:56;;;;;;;18.92;17.13;;;;;;;;;;4983463;28;24394;-61
2021/11/25 13:01:24;;;;;;;19.73;17.73;;;;;;;;;;4983228;28;24427;-61
2021/11/25 13:03:56;;;;;;;19.40;17.50;;;;;;;;;;4978659;28;24807;-62
2021/11/25 13:06:21;;;;;;;19.95;18.05;;;;;;;;;;4979158;28;24452;-63
2021/11/25 13:08:46;;;;;;;17.90;16.10;;;;;;;;;;4981899;28;24440;-63
2021/11/25 13:11:19;;;;;;;18.08;16.25;;;;;;;;;;4982720;28;24848;-63
2021/11/25 13:13:46;;;;;;;17.95;16.20;;;;;;;;;;4977106;28;24701;-64
2021/11/25 13:16:13;;;;;;;18.63;16.67;;;;;;;;;;4978092;28;24554;-64
2021/11/25 13:18:39;;;;;;;18.95;17.05;;;;;;;;;;4977463;28;24425;-63
2021/11/25 13:21:04;;;;;;;18.17;16.40;;;;;;;;;;4983690;28;24496;-64
2021/11/25 13:23:30;;;;;;;19.47;17.53;;;;;;;;;;4982706;28;24440;-63
2021/11/25 13:25:59;;;;;;;19.05;17.08;;;;;;;;;;4976955;28;24578;-64
2021/11/25 13:28:29;;;;;;;19.80;17.80;;;;;;;;;;4978697;28;24441;-64
2021/11/25 13:31:15;;;;;;;18.60;16.70;;;;;;;;;;4981343;28;24439;-64
2021/11/25 13:33:59;;;;;;;18.40;16.50;;;;;;;;;;4961868;28;24812;-64
2021/11/25 13:36:31;;;;;;;19.85;17.77;;;;;;;;;;4969124;28;25009;-64
2021/11/25 13:38:57;;;;;;;19.10;17.20;;;;;;;;;;4978906;28;24416;-64
2021/11/25 13:41:22;;;;;;;18.40;16.50;;;;;;;;;;4978070;28;24693;-62
2021/11/25 13:43:49;;;;;;;20.17;18.07;;;;;;;;;;4979405;28;24991;-63
2021/11/25 13:46:15;;;;;;;18.98;16.98;;;;;;;;;;4982505;28;24425;-64
2021/11/25 13:48:40;;;;;;;19.30;17.40;;;;;;;;;;4980464;28;25116;-64
2021/11/25 13:51:05;;;;;;;17.90;16.00;;;;;;;;;;4976572;28;24423;-64
2021/11/25 13:53:31;;;;;;;19.73;17.73;;;;;;;;;;4976298;28;24429;-62
2021/11/25 13:55:56;;;;;;;18.50;16.70;;;;;;;;;;4977305;28;24537;-62
2021/11/25 13:58:22;;;;;;;17.92;16.20;;;;;;;;;;4983507;28;24500;-64
2021/11/25 14:00:49;;;;;;;18.58;16.65;;;;;;;;;;4981651;28;24475;-62
2021/11/25 14:03:15;;;;;;;17.98;16.08;;;;;;;;;;4980521;28;24444;-63
2021/11/25 14:05:42;;;;;;;18.30;16.40;;;;;;;;;;4978277;28;25390;-62
2021/11/25 14:08:07;;;;;;;17.40;15.60;;;;;;;;;;4979510;28;24480;-63
2021/11/25 14:10:32;;;;;;;18.13;16.23;;;;;;;;;;4980127;28;24417;-62
2021/11/25 14:13:01;;;;;;;17.77;15.97;;;;;;;;;;4982089;28;24413;-62
2021/11/25 14:15:29;;;;;;;18.90;16.07;;;;;;;;;;4976383;28;24421;-62
2021/11/25 14:17:55;;;;;;;19.00;17.00;;;;;;;;;;4959202;28;24398;-62
2021/11/25 14:20:28;;;;;;;18.27;16.38;;;;;;;;;;4960236;28;24460;-64
2021/11/25 14:22:54;;;;;;;19.15;17.05;;;;;;;;;;4971989;28;24452;-64